METAR Data
IDs: Format: Raw Decoded Include TAF

Data at: 0839 UTC 20 Sep 2018

PADQ 200753Z AUTO 30003KT 10SM CLR 09/07 A3018 RMK AO2 SLP221 T00890072 TSNO
PADQ 200653Z AUTO 28005KT 10SM CLR 09/08 A3019 RMK AO2 SLP222 T00940078 TSNO
PADQ 200553Z 27005KT 10SM CLR 09/07 A3019 RMK AO2 SLP224 T00940072 10150 20094 53001
PADQ 200453Z 25003KT 10SM CLR 11/09 A3019 RMK AO2 SLP224 T01060089
PADQ 200353Z 00000KT 10SM CLR 12/09 A3019 RMK AO2 SLP223 T01220094
PADQ 200253Z 00000KT 10SM CLR 15/08 A3019 RMK AO2 SLP223 T01500078 55002
PADQ 200153Z 04003KT 10SM FEW050 14/08 A3019 RMK AO2 SLP222 T01440078
PADQ 200053Z 04004KT 10SM SCT047 BKN055 14/08 A3019 RMK AO2 SLP224 T01440083
PADQ 192353Z 11008KT 10SM BKN055 15/09 A3019 RMK AO2 SLP225 T01500089 10178 20128 56010
PADQ 192253Z 00000KT 10SM FEW060 17/07 A3020 RMK AO2 SLP226 T01720072
PADQ 192153Z 32009KT 10SM CLR 17/07 A3021 RMK AO2 SLP231 T01670067
PADQ 192053Z 31008KT 10SM CLR 16/07 A3022 RMK AO2 SLP235 T01610067 58003
PADQ 191953Z 33005KT 10SM FEW070 16/08 A3023 RMK AO2 SLP238 T01560078
PADQ 191853Z 30009KT 10SM OVC070 14/08 A3023 RMK AO2 SLP237 T01440083
PADQ 191753Z 31012KT 10SM BKN070 13/08 A3023 RMK AO2 SLP238 T01280083 10128 20083 51003
PADQ 191653Z 24006KT 10SM OVC070 11/08 A3023 RMK AO2 SLP238 T01060083
PADQ 191553Z 25008KT 10SM CLR 09/08 A3023 RMK AO2 SLP237 T00940078
PADQ 191453Z AUTO 19003KT 10SM FEW070 SCT100 10/08 A3022 RMK AO2 SLP235 T01000083 55003 TSNO
PADQ 191353Z AUTO 00000KT 10SM FEW075 BKN100 10/08 A3022 RMK AO2 SLP233 T01000083 TSNO
PADQ 191253Z AUTO 22003KT 10SM FEW050 OVC070 11/09 A3022 RMK AO2 SLP235 T01060089 TSNO
PADQ 191153Z AUTO 29004KT 10SM OVC046 10/09 A3023 RMK AO2 SLP238 70016 T01000089 10117 20094 55000 TSNO
PADQ 191053Z AUTO 23003KT 10SM BKN060 OVC100 11/09 A3023 RMK AO2 SLP238 T01110089 TSNO
PADQ 190953Z AUTO 27004KT 10SM FEW075 OVC110 11/09 A3023 RMK AO2 SLP237 T01110094 TSNO
PADQ 190853Z AUTO 25003KT 10SM FEW044 OVC055 12/10 A3023 RMK SLP238 T01170100 401330106 53003 TSNO VIA AUTODIAL
PADQ 190753Z AUTO 31003KT 10SM FEW031 SCT055 OVC095 11/10 A3023 RMK AO2 SLP236 T01110100 TSNO
PADQ 190719Z AUTO 00000KT 10SM OVC030 11/10 A3023 RMK AO2 T01060100 TSNO
PADQ 190653Z AUTO 00000KT 10SM OVC028 11/10 A3022 RMK AO2 SLP235 T01110100 TSNO
PADQ 190613Z AUTO 00000KT 10SM SCT006 BKN021 OVC060 12/11 A3022 RMK AO2 T01170106 TSNO
PADQ 190605Z AUTO 00000KT 10SM BKN006 OVC060 12/11 A3022 RMK AO2 CIG 006V012 T01170106 TSNO
PADQ 190553Z AUTO 00000KT 10SM SCT006 BKN055 OVC080 12/11 A3022 RMK AO2 RAE17 SLP235 P0000 60001 T01170106 10133 20111 53006 TSNO
PADQ 190528Z 00000KT 10SM SCT014 SCT050 OVC070 12/11 A3022 RMK AO2 RAE17 P0000 T01170106
PADQ 190508Z 00000KT 6SM -RA BR BKN012 BKN022 OVC031 12/11 A3022 RMK AO2 P0000 T01170106
PADQ 190453Z 00000KT 9SM -RA BKN028 OVC046 12/11 A3022 RMK AO2 RAE06B26 SLP233 P0001 T01170106
PADQ 190412Z 00000KT 9SM BKN028 OVC046 12/11 A3021 RMK AO2 RAE06 P0000 T01220111
PADQ 190353Z 00000KT 10SM -RA BKN032 BKN040 OVC055 12/12 A3021 RMK AO2 RAB29 SLP230 P0000 T01220117
PADQ 190314Z 04003KT 10SM FEW005 SCT022 OVC055 13/11 A3021 RMK AO2 T01280111
PADQ 190253Z 07003KT 10SM FEW005 OVC021 13/11 A3021 RMK AO2 RAE10 SLP229 P0000 60000 T01280111 56001
PADQ 190218Z 09004KT 10SM SCT014 BKN019 OVC050 12/12 A3021 RMK AO2 RAE10 P0000 T01220117
PADQ 190153Z 10006KT 10SM -RA FEW019 OVC050 13/12 A3021 RMK AO2 RAB47 SLP229 P0000 T01280117
PADQ 190056Z 09004KT 10SM FEW025 FEW042 OVC060 13/12 A3021 RMK AO2 T01280117
PADQ 190053Z 09004KT 10SM BKN012 OVC032 13/12 A3021 RMK AO2 SLP229 T01330117
PADQ 182353Z 06004KT 10SM BKN012 OVC032 13/12 A3021 RMK AO2 RAE43 SLP230 P0001 60008 T01280117 10128 20117 58001
PADQ 182253Z 06004KT 7SM -RA BKN012 OVC032 12/12 A3021 RMK AO2 SLP231 P0006 T01220117
PADQ 182234Z 06004KT 3SM -RA BR BKN005 OVC032 12/12 A3022 RMK AO2 P0005 T01220117
PADQ 182157Z 03003KT 3SM RA BR FEW004 SCT022 OVC031 12/11 A3021 RMK AO2 P0001 T01220111
PADQ 182153Z 05003KT 2 1/2SM -RA BR FEW004 SCT023 OVC029 12/11 A3021 RMK AO2 RAB31 SLP232 P0001 T01220111
PADQ 182139Z 09003KT 3SM -RA BR SCT005 BKN021 OVC031 12/12 A3022 RMK AO2 RAB31 P0000 T01220117
PADQ 182053Z 10004KT 9SM OVC005 12/12 A3021 RMK AO2 RAB11E23 SLP231 P0000 60000 T01220117 51003